Traders Point, Indiana
Current Conditions -  °F | °C
As of 12:53 AM on Sunday 23 Nov 2014 (Local Time) from KEYE Reporting Station
Light Rain Light Rain  
Wind Chill: 48°   Ceiling: 5500
Heat Index: 48°   Visibility: 9mi
Dew Point: 43°   Wind: 0mph
Humidity: 83%   Direction: NA
Pressure: 29.99"   Gusts: NA
Location:  39.8902°N, 86.2967°W
Report Text: KEYE 230553Z AUTO 00000KT 9SM -RA BKN055 OVC075 09/06 A2999 RMK AO2 SLP157 P0005 60005 T00890061 10128 20089 55000
Loading
Personal Weather Stations






























Interactive Weather Map New forecast layout! Learn more

10-Day Weather Forecast

Advertisements
Track Severe Weather on mobile